sensor_id;sensor_type;location;lat;lon;timestamp;P1;durP1;ratioP1;P2;durP2;ratioP2
43606;SDS011;29197;44.788;10.366;2024-01-07T00:00:17;11.13;;;7.77;;
43606;SDS011;29197;44.788;10.366;2024-01-07T00:03:05;12.97;;;8.80;;
43606;SDS011;29197;44.788;10.366;2024-01-07T00:05:54;13.30;;;8.53;;
43606;SDS011;29197;44.788;10.366;2024-01-07T00:08:43;11.83;;;8.00;;
43606;SDS011;29197;44.788;10.366;2024-01-07T00:11:35;12.67;;;8.50;;
43606;SDS011;29197;44.788;10.366;2024-01-07T00:14:24;11.67;;;8.10;;
43606;SDS011;29197;44.788;10.366;2024-01-07T00:17:13;12.97;;;8.33;;
43606;SDS011;29197;44.788;10.366;2024-01-07T00:20:02;12.30;;;7.70;;
43606;SDS011;29197;44.788;10.366;2024-01-07T00:22:51;10.10;;;7.77;;
43606;SDS011;29197;44.788;10.366;2024-01-07T00:25:39;11.57;;;7.43;;
43606;SDS011;29197;44.788;10.366;2024-01-07T00:28:30;12.73;;;7.90;;
43606;SDS011;29197;44.788;10.366;2024-01-07T00:31:18;12.67;;;8.33;;
43606;SDS011;29197;44.788;10.366;2024-01-07T00:34:07;10.33;;;6.80;;
43606;SDS011;29197;44.788;10.366;2024-01-07T00:36:56;11.70;;;7.87;;
43606;SDS011;29197;44.788;10.366;2024-01-07T00:39:45;11.10;;;7.57;;
43606;SDS011;29197;44.788;10.366;2024-01-07T00:42:34;14.47;;;8.07;;
43606;SDS011;29197;44.788;10.366;2024-01-07T00:45:25;11.67;;;7.80;;
43606;SDS011;29197;44.788;10.366;2024-01-07T00:48:14;14.43;;;8.63;;
43606;SDS011;29197;44.788;10.366;2024-01-07T00:51:03;11.67;;;8.10;;
43606;SDS011;29197;44.788;10.366;2024-01-07T00:53:52;12.40;;;7.37;;
43606;SDS011;29197;44.788;10.366;2024-01-07T00:56:41;11.27;;;7.20;;
43606;SDS011;29197;44.788;10.366;2024-01-07T00:59:30;14.40;;;8.57;;
43606;SDS011;29197;44.788;10.366;2024-01-07T01:02:20;11.10;;;7.57;;
43606;SDS011;29197;44.788;10.366;2024-01-07T01:05:09;11.10;;;6.50;;
43606;SDS011;29197;44.788;10.366;2024-01-07T01:07:58;9.80;;;6.83;;
43606;SDS011;29197;44.788;10.366;2024-01-07T01:10:47;8.93;;;7.00;;
43606;SDS011;29197;44.788;10.366;2024-01-07T01:13:35;10.57;;;6.33;;
43606;SDS011;29197;44.788;10.366;2024-01-07T01:16:24;12.27;;;7.50;;
43606;SDS011;29197;44.788;10.366;2024-01-07T01:19:15;10.60;;;7.37;;
43606;SDS011;29197;44.788;10.366;2024-01-07T01:22:04;10.37;;;6.23;;
43606;SDS011;29197;44.788;10.366;2024-01-07T01:24:53;9.87;;;6.43;;
43606;SDS011;29197;44.788;10.366;2024-01-07T01:27:42;10.23;;;7.10;;
43606;SDS011;29197;44.788;10.366;2024-01-07T01:30:32;10.47;;;6.10;;
43606;SDS011;29197;44.788;10.366;2024-01-07T01:33:21;8.63;;;6.10;;
43606;SDS011;29197;44.788;10.366;2024-01-07T01:36:11;10.10;;;6.63;;
43606;SDS011;29197;44.788;10.366;2024-01-07T01:39:00;8.77;;;6.20;;
43606;SDS011;29197;44.788;10.366;2024-01-07T01:41:49;8.33;;;5.40;;
43606;SDS011;29197;44.788;10.366;2024-01-07T01:44:38;8.00;;;5.43;;
43606;SDS011;29197;44.788;10.366;2024-01-07T01:47:28;7.07;;;5.30;;
43606;SDS011;29197;44.788;10.366;2024-01-07T01:50:18;7.73;;;5.40;;
43606;SDS011;29197;44.788;10.366;2024-01-07T01:53:08;5.63;;;4.30;;
43606;SDS011;29197;44.788;10.366;2024-01-07T01:55:57;7.47;;;5.13;;
43606;SDS011;29197;44.788;10.366;2024-01-07T01:58:46;5.93;;;4.30;;
43606;SDS011;29197;44.788;10.366;2024-01-07T02:01:35;6.20;;;4.23;;
43606;SDS011;29197;44.788;10.366;2024-01-07T02:04:24;7.80;;;3.70;;
43606;SDS011;29197;44.788;10.366;2024-01-07T02:07:13;7.23;;;4.43;;
43606;SDS011;29197;44.788;10.366;2024-01-07T02:10:04;8.13;;;3.93;;
43606;SDS011;29197;44.788;10.366;2024-01-07T02:12:53;5.77;;;3.60;;
43606;SDS011;29197;44.788;10.366;2024-01-07T02:15:42;5.67;;;4.00;;
43606;SDS011;29197;44.788;10.366;2024-01-07T02:18:31;5.27;;;3.37;;
43606;SDS011;29197;44.788;10.366;2024-01-07T02:21:20;4.27;;;3.50;;
43606;SDS011;29197;44.788;10.366;2024-01-07T02:24:16;5.27;;;3.43;;
43606;SDS011;29197;44.788;10.366;2024-01-07T02:27:05;7.43;;;3.27;;
43606;SDS011;29197;44.788;10.366;2024-01-07T02:29:54;4.00;;;3.23;;
43606;SDS011;29197;44.788;10.366;2024-01-07T02:32:43;5.47;;;3.60;;
43606;SDS011;29197;44.788;10.366;2024-01-07T02:35:32;4.37;;;3.30;;
43606;SDS011;29197;44.788;10.366;2024-01-07T02:38:21;6.50;;;3.33;;
43606;SDS011;29197;44.788;10.366;2024-01-07T02:41:11;4.93;;;3.83;;
43606;SDS011;29197;44.788;10.366;2024-01-07T02:44:00;6.20;;;3.37;;
43606;SDS011;29197;44.788;10.366;2024-01-07T02:46:48;7.13;;;4.57;;
43606;SDS011;29197;44.788;10.366;2024-01-07T02:49:37;7.90;;;4.70;;
43606;SDS011;29197;44.788;10.366;2024-01-07T02:52:26;12.53;;;4.90;;
43606;SDS011;29197;44.788;10.366;2024-01-07T02:55:15;7.03;;;4.20;;
43606;SDS011;29197;44.788;10.366;2024-01-07T02:58:05;7.40;;;5.40;;
43606;SDS011;29197;44.788;10.366;2024-01-07T03:00:54;6.07;;;4.80;;
43606;SDS011;29197;44.788;10.366;2024-01-07T03:03:44;10.27;;;5.80;;
43606;SDS011;29197;44.788;10.366;2024-01-07T03:06:33;7.70;;;5.63;;
43606;SDS011;29197;44.788;10.366;2024-01-07T03:09:22;10.03;;;6.83;;
43606;SDS011;29197;44.788;10.366;2024-01-07T03:12:11;9.97;;;7.10;;
43606;SDS011;29197;44.788;10.366;2024-01-07T03:15:01;9.87;;;6.73;;
43606;SDS011;29197;44.788;10.366;2024-01-07T03:17:50;8.93;;;6.70;;
43606;SDS011;29197;44.788;10.366;2024-01-07T03:20:39;11.90;;;7.10;;
43606;SDS011;29197;44.788;10.366;2024-01-07T03:23:28;9.23;;;6.80;;
43606;SDS011;29197;44.788;10.366;2024-01-07T03:26:17;12.17;;;8.03;;
43606;SDS011;29197;44.788;10.366;2024-01-07T03:29:07;10.73;;;7.63;;
43606;SDS011;29197;44.788;10.366;2024-01-07T03:31:58;11.43;;;7.90;;
43606;SDS011;29197;44.788;10.366;2024-01-07T03:34:46;12.23;;;8.23;;
43606;SDS011;29197;44.788;10.366;2024-01-07T03:37:35;10.30;;;7.53;;
43606;SDS011;29197;44.788;10.366;2024-01-07T03:40:24;11.10;;;8.00;;
43606;SDS011;29197;44.788;10.366;2024-01-07T03:43:13;12.37;;;9.30;;
43606;SDS011;29197;44.788;10.366;2024-01-07T03:46:02;11.27;;;8.83;;
43606;SDS011;29197;44.788;10.366;2024-01-07T03:48:52;10.10;;;7.80;;
43606;SDS011;29197;44.788;10.366;2024-01-07T03:51:42;10.73;;;7.97;;
43606;SDS011;29197;44.788;10.366;2024-01-07T03:54:31;10.30;;;8.30;;
43606;SDS011;29197;44.788;10.366;2024-01-07T03:57:20;11.07;;;8.67;;
43606;SDS011;29197;44.788;10.366;2024-01-07T04:00:09;11.83;;;8.07;;
43606;SDS011;29197;44.788;10.366;2024-01-07T04:02:58;8.77;;;6.87;;
43606;SDS011;29197;44.788;10.366;2024-01-07T04:05:48;12.03;;;8.17;;
43606;SDS011;29197;44.788;10.366;2024-01-07T04:08:37;9.53;;;7.10;;
43606;SDS011;29197;44.788;10.366;2024-01-07T04:11:26;7.80;;;6.27;;
43606;SDS011;29197;44.788;10.366;2024-01-07T04:14:15;8.70;;;6.97;;
43606;SDS011;29197;44.788;10.366;2024-01-07T04:17:04;8.47;;;6.03;;
43606;SDS011;29197;44.788;10.366;2024-01-07T04:19:55;7.93;;;5.57;;
43606;SDS011;29197;44.788;10.366;2024-01-07T04:22:45;7.23;;;5.83;;
43606;SDS011;29197;44.788;10.366;2024-01-07T04:25:34;7.60;;;5.57;;
43606;SDS011;29197;44.788;10.366;2024-01-07T04:28:23;7.80;;;5.50;;
43606;SDS011;29197;44.788;10.366;2024-01-07T04:31:11;5.93;;;4.80;;
43606;SDS011;29197;44.788;10.366;2024-01-07T04:34:01;7.50;;;4.80;;
43606;SDS011;29197;44.788;10.366;2024-01-07T04:36:50;6.30;;;4.80;;
43606;SDS011;29197;44.788;10.366;2024-01-07T04:39:40;5.10;;;4.37;;
43606;SDS011;29197;44.788;10.366;2024-01-07T04:42:29;7.27;;;4.57;;
43606;SDS011;29197;44.788;10.366;2024-01-07T04:45:18;5.13;;;4.07;;
43606;SDS011;29197;44.788;10.366;2024-01-07T04:48:07;4.37;;;3.47;;
43606;SDS011;29197;44.788;10.366;2024-01-07T04:50:56;3.90;;;2.80;;
43606;SDS011;29197;44.788;10.366;2024-01-07T04:53:45;2.70;;;2.07;;
43606;SDS011;29197;44.788;10.366;2024-01-07T04:56:36;3.60;;;2.70;;
43606;SDS011;29197;44.788;10.366;2024-01-07T04:59:25;2.43;;;2.23;;
43606;SDS011;29197;44.788;10.366;2024-01-07T05:02:14;3.77;;;2.00;;
43606;SDS011;29197;44.788;10.366;2024-01-07T05:05:03;2.20;;;1.63;;
43606;SDS011;29197;44.788;10.366;2024-01-07T05:07:52;1.97;;;1.77;;
43606;SDS011;29197;44.788;10.366;2024-01-07T05:10:41;3.80;;;1.80;;
43606;SDS011;29197;44.788;10.366;2024-01-07T05:13:31;1.73;;;1.40;;
43606;SDS011;29197;44.788;10.366;2024-01-07T05:16:20;1.67;;;1.50;;
43606;SDS011;29197;44.788;10.366;2024-01-07T05:19:09;1.80;;;1.20;;
43606;SDS011;29197;44.788;10.366;2024-01-07T05:21:59;1.73;;;1.37;;
43606;SDS011;29197;44.788;10.366;2024-01-07T05:24:48;1.10;;;1.00;;
43606;SDS011;29197;44.788;10.366;2024-01-07T05:27:37;2.07;;;1.00;;
43606;SDS011;29197;44.788;10.366;2024-01-07T05:30:27;1.47;;;1.30;;
43606;SDS011;29197;44.788;10.366;2024-01-07T05:33:16;2.33;;;1.17;;
43606;SDS011;29197;44.788;10.366;2024-01-07T05:36:05;1.10;;;1.00;;
43606;SDS011;29197;44.788;10.366;2024-01-07T05:38:54;1.57;;;1.40;;
43606;SDS011;29197;44.788;10.366;2024-01-07T05:41:43;1.60;;;1.50;;
43606;SDS011;29197;44.788;10.366;2024-01-07T05:44:32;2.93;;;1.87;;
43606;SDS011;29197;44.788;10.366;2024-01-07T05:47:22;2.60;;;1.70;;
43606;SDS011;29197;44.788;10.366;2024-01-07T05:50:11;2.10;;;1.90;;
43606;SDS011;29197;44.788;10.366;2024-01-07T05:53:02;3.40;;;2.57;;
43606;SDS011;29197;44.788;10.366;2024-01-07T05:55:51;3.33;;;2.80;;
43606;SDS011;29197;44.788;10.366;2024-01-07T05:58:40;4.30;;;3.03;;
43606;SDS011;29197;44.788;10.366;2024-01-07T06:01:29;4.93;;;3.13;;
43606;SDS011;29197;44.788;10.366;2024-01-07T06:04:19;4.20;;;2.70;;
43606;SDS011;29197;44.788;10.366;2024-01-07T06:07:09;5.03;;;3.53;;
43606;SDS011;29197;44.788;10.366;2024-01-07T06:09:58;4.17;;;3.00;;
43606;SDS011;29197;44.788;10.366;2024-01-07T06:12:47;4.50;;;3.43;;
43606;SDS011;29197;44.788;10.366;2024-01-07T06:15:36;4.57;;;3.60;;
43606;SDS011;29197;44.788;10.366;2024-01-07T06:18:25;5.33;;;3.60;;
43606;SDS011;29197;44.788;10.366;2024-01-07T06:21:16;5.27;;;3.80;;
43606;SDS011;29197;44.788;10.366;2024-01-07T06:24:05;4.20;;;3.40;;
43606;SDS011;29197;44.788;10.366;2024-01-07T06:26:56;7.47;;;4.03;;
43606;SDS011;29197;44.788;10.366;2024-01-07T06:29:45;7.57;;;4.53;;
43606;SDS011;29197;44.788;10.366;2024-01-07T06:32:34;7.03;;;4.63;;
43606;SDS011;29197;44.788;10.366;2024-01-07T06:35:23;5.73;;;4.17;;
43606;SDS011;29197;44.788;10.366;2024-01-07T06:38:13;5.20;;;3.93;;
43606;SDS011;29197;44.788;10.366;2024-01-07T06:41:02;6.03;;;4.00;;
43606;SDS011;29197;44.788;10.366;2024-01-07T06:43:52;5.00;;;3.67;;
43606;SDS011;29197;44.788;10.366;2024-01-07T06:46:43;6.10;;;4.20;;
43606;SDS011;29197;44.788;10.366;2024-01-07T06:49:32;6.80;;;4.23;;
43606;SDS011;29197;44.788;10.366;2024-01-07T06:52:21;7.23;;;4.60;;
43606;SDS011;29197;44.788;10.366;2024-01-07T06:55:11;7.33;;;4.17;;
43606;SDS011;29197;44.788;10.366;2024-01-07T06:58:00;4.83;;;3.80;;
43606;SDS011;29197;44.788;10.366;2024-01-07T07:00:50;6.33;;;4.57;;
43606;SDS011;29197;44.788;10.366;2024-01-07T07:03:39;6.13;;;4.33;;
43606;SDS011;29197;44.788;10.366;2024-01-07T07:06:29;8.53;;;5.47;;
43606;SDS011;29197;44.788;10.366;2024-01-07T07:09:18;7.30;;;5.03;;
43606;SDS011;29197;44.788;10.366;2024-01-07T07:12:08;7.13;;;5.60;;
43606;SDS011;29197;44.788;10.366;2024-01-07T07:14:57;7.20;;;5.50;;
43606;SDS011;29197;44.788;10.366;2024-01-07T07:17:46;6.83;;;5.40;;
43606;SDS011;29197;44.788;10.366;2024-01-07T07:20:35;8.63;;;5.73;;
43606;SDS011;29197;44.788;10.366;2024-01-07T07:23:24;7.13;;;5.03;;
43606;SDS011;29197;44.788;10.366;2024-01-07T07:26:12;6.67;;;5.10;;
43606;SDS011;29197;44.788;10.366;2024-01-07T07:29:03;8.83;;;6.20;;
43606;SDS011;29197;44.788;10.366;2024-01-07T07:31:52;7.27;;;5.60;;
43606;SDS011;29197;44.788;10.366;2024-01-07T07:34:41;7.83;;;5.30;;
43606;SDS011;29197;44.788;10.366;2024-01-07T07:37:30;8.90;;;6.10;;
43606;SDS011;29197;44.788;10.366;2024-01-07T07:40:19;9.07;;;6.20;;
43606;SDS011;29197;44.788;10.366;2024-01-07T07:43:08;7.77;;;6.53;;
43606;SDS011;29197;44.788;10.366;2024-01-07T07:45:58;6.63;;;5.30;;
43606;SDS011;29197;44.788;10.366;2024-01-07T07:48:50;8.07;;;6.13;;
43606;SDS011;29197;44.788;10.366;2024-01-07T07:51:39;7.37;;;5.47;;
43606;SDS011;29197;44.788;10.366;2024-01-07T07:54:28;8.60;;;6.10;;
43606;SDS011;29197;44.788;10.366;2024-01-07T07:57:21;7.43;;;5.37;;
43606;SDS011;29197;44.788;10.366;2024-01-07T08:00:12;7.90;;;5.30;;
43606;SDS011;29197;44.788;10.366;2024-01-07T08:03:03;8.47;;;6.30;;
43606;SDS011;29197;44.788;10.366;2024-01-07T08:05:52;8.70;;;5.83;;
43606;SDS011;29197;44.788;10.366;2024-01-07T08:08:41;8.97;;;6.10;;
43606;SDS011;29197;44.788;10.366;2024-01-07T08:11:29;7.10;;;5.33;;
43606;SDS011;29197;44.788;10.366;2024-01-07T08:14:18;10.00;;;5.67;;
43606;SDS011;29197;44.788;10.366;2024-01-07T08:17:07;7.83;;;6.00;;
43606;SDS011;29197;44.788;10.366;2024-01-07T08:19:57;7.90;;;5.97;;
43606;SDS011;29197;44.788;10.366;2024-01-07T08:22:48;7.80;;;5.80;;
43606;SDS011;29197;44.788;10.366;2024-01-07T08:25:37;7.73;;;5.50;;
43606;SDS011;29197;44.788;10.366;2024-01-07T08:28:26;7.60;;;5.30;;
43606;SDS011;29197;44.788;10.366;2024-01-07T08:31:15;7.13;;;5.47;;
43606;SDS011;29197;44.788;10.366;2024-01-07T08:34:04;8.97;;;5.93;;
43606;SDS011;29197;44.788;10.366;2024-01-07T08:36:54;8.07;;;5.70;;
43606;SDS011;29197;44.788;10.366;2024-01-07T08:39:43;7.90;;;5.80;;
43606;SDS011;29197;44.788;10.366;2024-01-07T08:42:32;9.40;;;6.23;;
43606;SDS011;29197;44.788;10.366;2024-01-07T08:45:21;8.57;;;6.07;;
43606;SDS011;29197;44.788;10.366;2024-01-07T08:48:10;6.87;;;5.67;;
43606;SDS011;29197;44.788;10.366;2024-01-07T08:50:59;6.27;;;5.50;;
43606;SDS011;29197;44.788;10.366;2024-01-07T08:53:50;9.00;;;6.17;;
43606;SDS011;29197;44.788;10.366;2024-01-07T08:56:39;8.37;;;5.50;;
43606;SDS011;29197;44.788;10.366;2024-01-07T08:59:27;8.97;;;6.23;;
43606;SDS011;29197;44.788;10.366;2024-01-07T09:02:16;9.43;;;5.80;;
43606;SDS011;29197;44.788;10.366;2024-01-07T09:05:05;7.30;;;5.60;;
43606;SDS011;29197;44.788;10.366;2024-01-07T09:07:54;8.73;;;5.87;;
43606;SDS011;29197;44.788;10.366;2024-01-07T09:10:45;7.47;;;5.60;;
43606;SDS011;29197;44.788;10.366;2024-01-07T09:13:33;7.47;;;5.50;;
43606;SDS011;29197;44.788;10.366;2024-01-07T09:16:22;8.43;;;6.27;;
43606;SDS011;29197;44.788;10.366;2024-01-07T09:19:11;6.80;;;5.47;;
43606;SDS011;29197;44.788;10.366;2024-01-07T09:22:01;7.73;;;5.27;;
43606;SDS011;29197;44.788;10.366;2024-01-07T09:24:50;6.07;;;5.03;;
43606;SDS011;29197;44.788;10.366;2024-01-07T09:27:41;6.33;;;5.23;;
43606;SDS011;29197;44.788;10.366;2024-01-07T09:30:30;6.13;;;4.80;;
43606;SDS011;29197;44.788;10.366;2024-01-07T09:33:19;6.93;;;5.23;;
43606;SDS011;29197;44.788;10.366;2024-01-07T09:36:10;6.63;;;4.93;;
43606;SDS011;29197;44.788;10.366;2024-01-07T09:39:15;6.23;;;4.60;;
43606;SDS011;29197;44.788;10.366;2024-01-07T09:42:04;7.27;;;5.37;;
43606;SDS011;29197;44.788;10.366;2024-01-07T09:44:54;8.30;;;5.57;;
43606;SDS011;29197;44.788;10.366;2024-01-07T09:47:43;7.10;;;5.10;;
43606;SDS011;29197;44.788;10.366;2024-01-07T09:50:33;6.73;;;4.73;;
43606;SDS011;29197;44.788;10.366;2024-01-07T09:53:23;7.37;;;4.90;;
43606;SDS011;29197;44.788;10.366;2024-01-07T09:56:16;5.63;;;4.43;;
43606;SDS011;29197;44.788;10.366;2024-01-07T09:59:07;5.67;;;4.57;;
43606;SDS011;29197;44.788;10.366;2024-01-07T10:01:58;9.23;;;5.10;;
43606;SDS011;29197;44.788;10.366;2024-01-07T10:04:47;7.00;;;5.07;;
43606;SDS011;29197;44.788;10.366;2024-01-07T10:07:37;6.07;;;4.23;;
43606;SDS011;29197;44.788;10.366;2024-01-07T10:10:27;7.27;;;5.23;;
43606;SDS011;29197;44.788;10.366;2024-01-07T10:13:17;6.10;;;4.80;;
43606;SDS011;29197;44.788;10.366;2024-01-07T10:16:07;6.20;;;4.60;;
43606;SDS011;29197;44.788;10.366;2024-01-07T10:18:57;7.90;;;6.00;;
43606;SDS011;29197;44.788;10.366;2024-01-07T10:21:46;6.53;;;4.70;;
43606;SDS011;29197;44.788;10.366;2024-01-07T10:24:35;6.83;;;4.63;;
43606;SDS011;29197;44.788;10.366;2024-01-07T10:27:26;5.43;;;4.53;;
43606;SDS011;29197;44.788;10.366;2024-01-07T10:30:15;4.80;;;3.97;;
43606;SDS011;29197;44.788;10.366;2024-01-07T10:33:04;6.67;;;4.17;;
43606;SDS011;29197;44.788;10.366;2024-01-07T10:35:56;6.40;;;4.40;;
43606;SDS011;29197;44.788;10.366;2024-01-07T10:38:45;6.27;;;4.20;;
43606;SDS011;29197;44.788;10.366;2024-01-07T10:41:34;5.37;;;4.00;;
43606;SDS011;29197;44.788;10.366;2024-01-07T10:44:25;5.07;;;3.47;;
43606;SDS011;29197;44.788;10.366;2024-01-07T10:47:14;5.27;;;4.03;;
43606;SDS011;29197;44.788;10.366;2024-01-07T10:50:05;6.20;;;4.37;;
43606;SDS011;29197;44.788;10.366;2024-01-07T10:53:00;7.43;;;4.13;;
43606;SDS011;29197;44.788;10.366;2024-01-07T10:55:54;4.87;;;3.83;;
43606;SDS011;29197;44.788;10.366;2024-01-07T10:58:47;4.57;;;3.57;;
43606;SDS011;29197;44.788;10.366;2024-01-07T11:01:37;4.93;;;3.57;;
43606;SDS011;29197;44.788;10.366;2024-01-07T11:04:29;5.23;;;3.83;;
43606;SDS011;29197;44.788;10.366;2024-01-07T11:07:19;5.13;;;3.87;;
43606;SDS011;29197;44.788;10.366;2024-01-07T11:10:15;5.20;;;3.73;;
43606;SDS011;29197;44.788;10.366;2024-01-07T11:13:05;5.80;;;3.40;;
43606;SDS011;29197;44.788;10.366;2024-01-07T11:15:54;3.73;;;2.97;;
43606;SDS011;29197;44.788;10.366;2024-01-07T11:18:45;3.97;;;2.90;;
43606;SDS011;29197;44.788;10.366;2024-01-07T11:21:38;3.63;;;2.57;;
43606;SDS011;29197;44.788;10.366;2024-01-07T11:24:39;4.57;;;3.17;;
43606;SDS011;29197;44.788;10.366;2024-01-07T11:27:31;3.40;;;2.53;;
43606;SDS011;29197;44.788;10.366;2024-01-07T11:30:20;4.03;;;2.70;;
43606;SDS011;29197;44.788;10.366;2024-01-07T11:33:09;5.03;;;3.03;;
43606;SDS011;29197;44.788;10.366;2024-01-07T11:36:02;4.43;;;3.00;;
43606;SDS011;29197;44.788;10.366;2024-01-07T11:38:52;3.23;;;2.70;;
43606;SDS011;29197;44.788;10.366;2024-01-07T11:41:41;6.00;;;3.33;;
43606;SDS011;29197;44.788;10.366;2024-01-07T11:44:34;5.47;;;3.70;;
43606;SDS011;29197;44.788;10.366;2024-01-07T11:47:24;4.23;;;2.83;;
43606;SDS011;29197;44.788;10.366;2024-01-07T11:50:15;3.97;;;2.87;;
43606;SDS011;29197;44.788;10.366;2024-01-07T11:53:03;3.50;;;2.90;;
43606;SDS011;29197;44.788;10.366;2024-01-07T11:55:52;3.50;;;3.00;;
43606;SDS011;29197;44.788;10.366;2024-01-07T11:58:41;3.07;;;2.77;;
43606;SDS011;29197;44.788;10.366;2024-01-07T12:01:31;3.73;;;2.80;;
43606;SDS011;29197;44.788;10.366;2024-01-07T12:04:24;5.27;;;3.10;;
43606;SDS011;29197;44.788;10.366;2024-01-07T12:07:13;3.27;;;2.50;;
43606;SDS011;29197;44.788;10.366;2024-01-07T12:10:02;4.73;;;2.90;;
43606;SDS011;29197;44.788;10.366;2024-01-07T12:12:58;4.43;;;3.07;;
43606;SDS011;29197;44.788;10.366;2024-01-07T12:15:47;3.80;;;2.77;;
43606;SDS011;29197;44.788;10.366;2024-01-07T12:18:38;4.63;;;3.23;;
43606;SDS011;29197;44.788;10.366;2024-01-07T12:21:29;4.40;;;3.03;;
43606;SDS011;29197;44.788;10.366;2024-01-07T12:24:27;4.10;;;3.27;;
43606;SDS011;29197;44.788;10.366;2024-01-07T12:27:17;5.30;;;3.20;;
43606;SDS011;29197;44.788;10.366;2024-01-07T12:30:21;5.43;;;3.67;;
43606;SDS011;29197;44.788;10.366;2024-01-07T12:33:15;4.97;;;3.37;;
43606;SDS011;29197;44.788;10.366;2024-01-07T12:36:11;5.20;;;3.27;;
43606;SDS011;29197;44.788;10.366;2024-01-07T12:39:06;4.63;;;3.37;;
43606;SDS011;29197;44.788;10.366;2024-01-07T12:41:55;5.37;;;3.20;;
43606;SDS011;29197;44.788;10.366;2024-01-07T12:44:44;3.90;;;2.83;;
43606;SDS011;29197;44.788;10.366;2024-01-07T12:47:33;5.23;;;3.80;;
43606;SDS011;29197;44.788;10.366;2024-01-07T12:50:22;4.50;;;3.20;;
43606;SDS011;29197;44.788;10.366;2024-01-07T12:53:16;4.63;;;3.53;;
43606;SDS011;29197;44.788;10.366;2024-01-07T12:56:05;4.97;;;3.53;;
43606;SDS011;29197;44.788;10.366;2024-01-07T12:58:54;4.53;;;3.60;;
43606;SDS011;29197;44.788;10.366;2024-01-07T13:01:43;6.03;;;3.73;;
43606;SDS011;29197;44.788;10.366;2024-01-07T13:04:32;5.30;;;4.00;;
43606;SDS011;29197;44.788;10.366;2024-01-07T13:07:21;5.07;;;3.67;;
43606;SDS011;29197;44.788;10.366;2024-01-07T13:10:11;5.63;;;4.20;;
43606;SDS011;29197;44.788;10.366;2024-01-07T13:13:01;6.33;;;4.53;;
43606;SDS011;29197;44.788;10.366;2024-01-07T13:16:00;4.60;;;3.80;;
43606;SDS011;29197;44.788;10.366;2024-01-07T13:18:49;5.47;;;3.60;;
43606;SDS011;29197;44.788;10.366;2024-01-07T13:21:38;5.13;;;3.63;;
43606;SDS011;29197;44.788;10.366;2024-01-07T13:24:28;9.77;;;4.23;;
43606;SDS011;29197;44.788;10.366;2024-01-07T13:27:19;4.80;;;4.10;;
43606;SDS011;29197;44.788;10.366;2024-01-07T13:30:10;4.07;;;3.37;;
43606;SDS011;29197;44.788;10.366;2024-01-07T13:32:59;4.07;;;3.37;;
43606;SDS011;29197;44.788;10.366;2024-01-07T13:35:50;4.70;;;3.87;;
43606;SDS011;29197;44.788;10.366;2024-01-07T13:38:42;5.83;;;3.40;;
43606;SDS011;29197;44.788;10.366;2024-01-07T13:41:34;6.40;;;4.10;;
43606;SDS011;29197;44.788;10.366;2024-01-07T13:44:24;7.80;;;3.47;;
43606;SDS011;29197;44.788;10.366;2024-01-07T13:47:23;5.70;;;3.73;;
43606;SDS011;29197;44.788;10.366;2024-01-07T13:50:17;5.60;;;3.20;;
43606;SDS011;29197;44.788;10.366;2024-01-07T13:53:06;5.10;;;3.70;;
43606;SDS011;29197;44.788;10.366;2024-01-07T13:56:00;4.40;;;3.23;;
43606;SDS011;29197;44.788;10.366;2024-01-07T13:58:50;5.10;;;3.60;;
43606;SDS011;29197;44.788;10.366;2024-01-07T14:01:40;7.20;;;3.57;;
43606;SDS011;29197;44.788;10.366;2024-01-07T14:04:31;5.57;;;3.23;;
43606;SDS011;29197;44.788;10.366;2024-01-07T14:07:29;4.10;;;3.47;;
43606;SDS011;29197;44.788;10.366;2024-01-07T14:10:18;3.37;;;3.00;;
43606;SDS011;29197;44.788;10.366;2024-01-07T14:13:07;3.63;;;3.10;;
43606;SDS011;29197;44.788;10.366;2024-01-07T14:15:56;3.70;;;2.90;;
43606;SDS011;29197;44.788;10.366;2024-01-07T14:18:47;4.07;;;3.30;;
43606;SDS011;29197;44.788;10.366;2024-01-07T14:21:36;4.47;;;3.47;;
43606;SDS011;29197;44.788;10.366;2024-01-07T14:24:26;4.93;;;3.50;;
43606;SDS011;29197;44.788;10.366;2024-01-07T14:27:15;4.30;;;3.50;;
43606;SDS011;29197;44.788;10.366;2024-01-07T14:30:04;4.33;;;3.47;;
43606;SDS011;29197;44.788;10.366;2024-01-07T14:32:54;5.00;;;3.80;;
43606;SDS011;29197;44.788;10.366;2024-01-07T14:35:45;3.90;;;3.17;;
43606;SDS011;29197;44.788;10.366;2024-01-07T14:38:34;3.60;;;2.80;;
43606;SDS011;29197;44.788;10.366;2024-01-07T14:41:23;4.30;;;3.43;;
43606;SDS011;29197;44.788;10.366;2024-01-07T14:44:11;4.17;;;3.07;;
43606;SDS011;29197;44.788;10.366;2024-01-07T14:47:02;6.20;;;4.23;;
43606;SDS011;29197;44.788;10.366;2024-01-07T14:49:51;4.90;;;4.00;;
43606;SDS011;29197;44.788;10.366;2024-01-07T14:52:41;4.10;;;3.20;;
43606;SDS011;29197;44.788;10.366;2024-01-07T14:55:30;4.77;;;3.53;;
43606;SDS011;29197;44.788;10.366;2024-01-07T14:58:19;5.43;;;3.73;;
43606;SDS011;29197;44.788;10.366;2024-01-07T15:01:09;4.13;;;3.40;;
43606;SDS011;29197;44.788;10.366;2024-01-07T15:03:58;4.97;;;3.50;;
43606;SDS011;29197;44.788;10.366;2024-01-07T15:06:47;3.63;;;3.10;;
43606;SDS011;29197;44.788;10.366;2024-01-07T15:09:39;4.87;;;3.63;;
43606;SDS011;29197;44.788;10.366;2024-01-07T15:12:28;5.03;;;3.80;;
43606;SDS011;29197;44.788;10.366;2024-01-07T15:15:25;4.77;;;2.97;;
43606;SDS011;29197;44.788;10.366;2024-01-07T15:18:16;12.33;;;7.73;;
43606;SDS011;29197;44.788;10.366;2024-01-07T15:21:05;11.13;;;7.00;;
43606;SDS011;29197;44.788;10.366;2024-01-07T15:23:55;7.27;;;5.43;;
43606;SDS011;29197;44.788;10.366;2024-01-07T15:26:45;5.33;;;4.00;;
43606;SDS011;29197;44.788;10.366;2024-01-07T15:29:34;5.27;;;3.37;;
43606;SDS011;29197;44.788;10.366;2024-01-07T15:32:23;5.33;;;3.90;;
43606;SDS011;29197;44.788;10.366;2024-01-07T15:35:14;6.07;;;4.23;;
43606;SDS011;29197;44.788;10.366;2024-01-07T15:38:03;4.40;;;3.63;;
43606;SDS011;29197;44.788;10.366;2024-01-07T15:40:52;4.63;;;3.47;;
43606;SDS011;29197;44.788;10.366;2024-01-07T15:43:42;5.80;;;4.00;;
43606;SDS011;29197;44.788;10.366;2024-01-07T15:46:31;4.97;;;3.60;;
43606;SDS011;29197;44.788;10.366;2024-01-07T15:49:20;4.43;;;3.43;;
43606;SDS011;29197;44.788;10.366;2024-01-07T15:52:09;5.17;;;3.73;;
43606;SDS011;29197;44.788;10.366;2024-01-07T15:54:58;4.73;;;3.53;;
43606;SDS011;29197;44.788;10.366;2024-01-07T15:57:50;5.63;;;3.90;;
43606;SDS011;29197;44.788;10.366;2024-01-07T16:00:51;6.27;;;4.37;;
43606;SDS011;29197;44.788;10.366;2024-01-07T16:03:44;5.50;;;3.67;;
43606;SDS011;29197;44.788;10.366;2024-01-07T16:06:35;21.00;;;6.10;;
43606;SDS011;29197;44.788;10.366;2024-01-07T16:09:26;9.77;;;5.17;;
43606;SDS011;29197;44.788;10.366;2024-01-07T16:12:18;6.30;;;4.30;;
43606;SDS011;29197;44.788;10.366;2024-01-07T16:15:09;6.43;;;4.77;;
43606;SDS011;29197;44.788;10.366;2024-01-07T16:18:13;6.70;;;4.57;;
43606;SDS011;29197;44.788;10.366;2024-01-07T16:21:07;7.30;;;4.63;;
43606;SDS011;29197;44.788;10.366;2024-01-07T16:24:05;6.20;;;4.20;;
43606;SDS011;29197;44.788;10.366;2024-01-07T16:26:56;6.60;;;4.37;;
43606;SDS011;29197;44.788;10.366;2024-01-07T16:29:50;5.90;;;3.77;;
43606;SDS011;29197;44.788;10.366;2024-01-07T16:32:42;5.70;;;4.50;;
43606;SDS011;29197;44.788;10.366;2024-01-07T16:35:38;6.57;;;3.73;;
43606;SDS011;29197;44.788;10.366;2024-01-07T16:38:31;5.87;;;4.03;;
43606;SDS011;29197;44.788;10.366;2024-01-07T16:41:21;5.53;;;4.17;;
43606;SDS011;29197;44.788;10.366;2024-01-07T16:44:12;4.77;;;3.50;;
43606;SDS011;29197;44.788;10.366;2024-01-07T16:47:02;4.73;;;3.63;;